createdAt,value
2018-04-27T00:01:50.909Z,83.75
2018-04-27T00:04:18.419Z,84.09
2018-04-27T00:06:45.891Z,84.59
2018-04-27T00:09:13.470Z,84.58
2018-04-27T00:11:41.002Z,84.55
2018-04-27T00:14:08.589Z,84.42
2018-04-27T00:16:36.084Z,84.17
2018-04-27T00:19:03.587Z,84.47
2018-04-27T00:21:31.132Z,84.64
2018-04-27T00:23:58.618Z,85.44
2018-04-27T00:26:26.146Z,85.63
2018-04-27T00:28:53.721Z,85.29
2018-04-27T00:31:21.306Z,85.10
2018-04-27T00:33:48.801Z,84.73
2018-04-27T00:36:16.297Z,84.58
2018-04-27T00:38:43.883Z,84.09
2018-04-27T00:41:11.360Z,83.99
2018-04-27T00:43:38.831Z,84.18
2018-04-27T00:46:06.351Z,84.20
2018-04-27T00:48:33.829Z,84.13
2018-04-27T00:51:01.375Z,84.14
2018-04-27T00:53:28.876Z,84.24
2018-04-27T00:55:56.386Z,84.79
2018-04-27T00:58:23.895Z,85.37
2018-04-27T01:00:51.508Z,85.45
2018-04-27T01:03:18.993Z,85.52
2018-04-27T01:05:46.508Z,85.44
2018-04-27T01:08:14.017Z,85.53
2018-04-27T01:10:41.490Z,85.84
2018-04-27T01:13:09.002Z,85.93
2018-04-27T01:15:36.508Z,85.85
2018-04-27T01:18:03.984Z,85.74
2018-04-27T01:20:31.457Z,85.85
2018-04-27T01:22:59.001Z,85.98
2018-04-27T01:25:26.472Z,85.96
2018-04-27T01:27:54.075Z,85.91
2018-04-27T01:30:21.583Z,86.15
2018-04-27T01:32:49.097Z,86.03
2018-04-27T01:35:16.588Z,86.07
2018-04-27T01:37:44.126Z,85.79
2018-04-27T01:40:11.621Z,85.56
2018-04-27T01:42:39.101Z,85.75
2018-04-27T01:45:06.588Z,85.69
2018-04-27T01:47:34.062Z,85.96
2018-04-27T01:50:01.575Z,86.48
2018-04-27T01:52:29.054Z,86.44
2018-04-27T01:54:56.561Z,86.60
2018-04-27T01:57:24.115Z,86.77
2018-04-27T01:59:51.703Z,86.75
2018-04-27T02:02:19.176Z,87.15
2018-04-27T02:04:46.693Z,87.19
2018-04-27T02:07:14.283Z,87.39
2018-04-27T02:09:41.797Z,87.44
2018-04-27T02:12:09.349Z,87.52
2018-04-27T02:14:36.826Z,87.81
2018-04-27T02:17:04.307Z,87.94
2018-04-27T02:19:31.783Z,88.01
2018-04-27T02:21:59.256Z,88.33
2018-04-27T02:24:26.765Z,88.53
2018-04-27T02:26:54.339Z,88.53
2018-04-27T02:29:21.871Z,88.66
2018-04-27T02:31:49.356Z,88.76
2018-04-27T02:34:16.831Z,88.82
2018-04-27T02:36:44.344Z,88.72
2018-04-27T02:39:11.818Z,88.72
2018-04-27T02:41:39.270Z,88.47
2018-04-27T02:44:06.849Z,88.48
2018-04-27T02:46:34.376Z,88.61
2018-04-27T02:49:01.854Z,88.56
2018-04-27T02:51:29.329Z,88.39
2018-04-27T02:53:56.788Z,88.42
2018-04-27T02:56:24.235Z,88.39
2018-04-27T02:58:51.968Z,88.22
2018-04-27T03:01:19.454Z,88.14
2018-04-27T03:03:46.948Z,88.08
2018-04-27T03:06:14.416Z,87.88
2018-04-27T03:08:41.855Z,87.73
2018-04-27T03:11:09.329Z,87.65
2018-04-27T03:13:36.786Z,87.45
2018-04-27T03:16:04.257Z,87.28
2018-04-27T03:18:31.759Z,87.44
2018-04-27T03:20:59.238Z,87.19
2018-04-27T03:23:26.679Z,87.08
2018-04-27T03:25:54.135Z,87.08
2018-04-27T03:28:21.575Z,87.12
2018-04-27T03:30:49.051Z,87.07
2018-04-27T03:33:16.496Z,87.23
2018-04-27T03:35:43.977Z,87.25
2018-04-27T03:38:11.455Z,87.03
2018-04-27T03:40:38.952Z,86.98
2018-04-27T03:43:06.405Z,87.01
2018-04-27T03:45:33.855Z,87.19
2018-04-27T03:48:01.328Z,87.11
2018-04-27T03:50:28.787Z,86.97
2018-04-27T03:52:56.303Z,87.28
2018-04-27T03:55:23.759Z,87.08
2018-04-27T03:57:51.278Z,86.98
2018-04-27T04:00:30.598Z,87.24
2018-04-27T04:03:09.784Z,87.09
2018-04-27T04:05:37.253Z,86.96
2018-04-27T04:08:04.703Z,86.90
2018-04-27T04:10:32.157Z,86.63
2018-04-27T04:12:59.596Z,86.44
2018-04-27T04:15:27.051Z,86.19
2018-04-27T04:17:54.512Z,85.90
2018-04-27T04:20:21.994Z,85.69
2018-04-27T04:22:49.509Z,85.29
2018-04-27T04:25:16.995Z,84.85
2018-04-27T04:27:44.514Z,84.43
2018-04-27T04:30:12.009Z,83.62
2018-04-27T04:32:39.513Z,82.68
2018-04-27T04:35:07.051Z,82.13
2018-04-27T04:37:34.555Z,81.05
2018-04-27T04:40:02.040Z,79.78
2018-04-27T04:42:29.493Z,76.62
2018-04-27T04:44:56.979Z,73.25
2018-04-27T04:47:24.556Z,71.41
2018-04-27T04:49:52.015Z,73.16
2018-04-27T04:52:19.461Z,75.23
2018-04-27T04:54:46.973Z,77.07
2018-04-27T04:57:14.419Z,77.95
2018-04-27T04:59:41.886Z,78.87
2018-04-27T05:02:09.409Z,79.19
2018-04-27T05:04:36.896Z,79.39
2018-04-27T05:07:04.391Z,79.64
2018-04-27T05:09:31.883Z,79.63
2018-04-27T05:11:59.437Z,79.47
2018-04-27T05:14:26.999Z,79.70
2018-04-27T05:16:54.482Z,79.81
2018-04-27T05:19:21.984Z,79.87
2018-04-27T05:21:49.563Z,79.52
2018-04-27T05:24:17.067Z,79.67
2018-04-27T05:26:44.569Z,79.59
2018-04-27T05:29:12.115Z,78.64
2018-04-27T05:31:39.605Z,77.69
2018-04-27T05:34:07.136Z,77.99
2018-04-27T05:36:34.645Z,77.54
2018-04-27T05:39:02.147Z,76.86
2018-04-27T05:41:29.600Z,75.76
2018-04-27T05:43:57.121Z,75.18
2018-04-27T05:46:24.601Z,74.29
2018-04-27T05:48:52.056Z,73.79
2018-04-27T05:51:19.519Z,73.32
2018-04-27T05:53:46.997Z,72.75
2018-04-27T05:56:14.581Z,73.25
2018-04-27T05:58:42.140Z,73.38
2018-04-27T06:01:09.598Z,72.64
2018-04-27T06:03:49.024Z,72.21
2018-04-27T06:06:16.471Z,71.65
2018-04-27T06:08:43.946Z,71.56
2018-04-27T06:11:11.489Z,71.30
2018-04-27T06:13:38.935Z,70.68
2018-04-27T06:16:06.556Z,70.01
2018-04-27T06:18:34.056Z,69.26
2018-04-27T06:21:01.560Z,68.72
2018-04-27T06:23:29.129Z,68.17
2018-04-27T06:25:56.624Z,67.87
2018-04-27T06:28:24.112Z,67.54
2018-04-27T06:30:51.601Z,67.65
2018-04-27T06:33:19.098Z,67.19
2018-04-27T06:35:46.570Z,67.24
2018-04-27T06:38:14.016Z,66.67
2018-04-27T06:40:41.620Z,66.51
2018-04-27T06:43:09.136Z,67.06
2018-04-27T06:45:36.637Z,66.91
2018-04-27T06:48:04.160Z,66.35
2018-04-27T06:50:31.611Z,65.97
2018-04-27T06:52:59.183Z,65.42
2018-04-27T06:55:26.627Z,65.80
2018-04-27T06:57:54.077Z,63.83
2018-04-27T07:00:21.653Z,64.17
2018-04-27T07:02:49.110Z,63.55
2018-04-27T07:05:16.633Z,62.52
2018-04-27T07:07:44.160Z,62.23
2018-04-27T07:10:11.709Z,62.11
2018-04-27T07:12:39.174Z,61.44
2018-04-27T07:15:06.691Z,61.57
2018-04-27T07:17:34.140Z,61.05
2018-04-27T07:20:01.594Z,60.53
2018-04-27T07:22:29.084Z,61.20
2018-04-27T07:24:56.587Z,61.00
2018-04-27T07:27:24.088Z,60.55
2018-04-27T07:29:51.556Z,60.17
2018-04-27T07:32:19.108Z,60.35
2018-04-27T07:34:46.600Z,59.78
2018-04-27T07:37:14.110Z,58.55
2018-04-27T07:39:41.697Z,57.80
2018-04-27T07:42:09.144Z,57.91
2018-04-27T07:44:36.724Z,58.35
2018-04-27T07:47:04.216Z,57.51
2018-04-27T07:49:31.671Z,57.54
2018-04-27T07:51:59.197Z,58.03
2018-04-27T07:54:26.647Z,56.90
2018-04-27T07:56:54.161Z,56.95
2018-04-27T07:59:21.628Z,56.43
2018-04-27T08:01:49.071Z,55.99
2018-04-27T08:04:16.567Z,55.21
2018-04-27T08:06:44.140Z,55.50
2018-04-27T08:09:11.629Z,54.69
2018-04-27T08:11:39.181Z,54.41
2018-04-27T08:14:06.639Z,53.85
2018-04-27T08:16:34.084Z,53.98
2018-04-27T08:19:01.556Z,54.24
2018-04-27T08:21:29.042Z,53.13
2018-04-27T08:23:56.531Z,53.63
2018-04-27T08:26:26.716Z,54.08
2018-04-27T08:28:54.172Z,52.24
2018-04-27T08:31:21.673Z,51.21
2018-04-27T08:33:49.162Z,50.23
2018-04-27T08:36:16.737Z,50.99
2018-04-27T08:38:44.165Z,51.81
2018-04-27T08:41:11.650Z,51.81
2018-04-27T08:43:39.091Z,52.08
2018-04-27T08:46:06.537Z,51.94
2018-04-27T08:48:34.028Z,51.87
2018-04-27T08:51:01.475Z,52.15
2018-04-27T08:53:28.928Z,53.08
2018-04-27T08:55:56.416Z,52.29
2018-04-27T08:58:23.905Z,52.93
2018-04-27T09:00:51.493Z,52.64
2018-04-27T09:03:18.954Z,52.10
2018-04-27T09:05:46.443Z,50.95
2018-04-27T09:08:13.921Z,50.77
2018-04-27T09:10:41.371Z,48.71
2018-04-27T09:13:08.825Z,48.83
2018-04-27T09:15:36.457Z,48.51
2018-04-27T09:18:03.961Z,48.03
2018-04-27T09:20:31.485Z,48.55
2018-04-27T09:22:58.967Z,47.50
2018-04-27T09:25:26.560Z,46.00
2018-04-27T09:27:54.081Z,45.06
2018-04-27T09:30:21.555Z,45.70
2018-04-27T09:32:49.005Z,45.92
2018-04-27T09:35:16.557Z,45.16
2018-04-27T09:37:44.011Z,44.40
2018-04-27T09:40:11.504Z,44.05
2018-04-27T09:42:39.014Z,44.75
2018-04-27T09:45:06.473Z,44.93
2018-04-27T09:47:33.953Z,44.79
2018-04-27T09:50:01.457Z,44.92
2018-04-27T09:52:28.912Z,45.82
2018-04-27T09:54:56.426Z,45.31
2018-04-27T09:57:23.898Z,44.83
2018-04-27T09:59:51.403Z,43.80
2018-04-27T10:02:19.206Z,44.20
2018-04-27T10:04:46.684Z,44.37
2018-04-27T10:07:14.180Z,43.05
2018-04-27T10:09:41.648Z,43.78
2018-04-27T10:12:09.154Z,42.75
2018-04-27T10:14:36.607Z,41.39
2018-04-27T10:17:04.093Z,41.23
2018-04-27T10:19:31.651Z,41.56
2018-04-27T10:21:59.129Z,43.86
2018-04-27T10:24:26.581Z,44.16
2018-04-27T10:26:54.027Z,44.68
2018-04-27T10:29:21.500Z,44.62
2018-04-27T10:31:48.995Z,43.49
2018-04-27T10:34:16.554Z,41.63
2018-04-27T10:36:44.008Z,41.77
2018-04-27T10:39:11.482Z,41.44
2018-04-27T10:41:39.072Z,41.43
2018-04-27T10:44:06.575Z,41.94
2018-04-27T10:46:34.033Z,40.55
2018-04-27T10:49:01.545Z,40.75
2018-04-27T10:51:29.075Z,42.43
2018-04-27T10:53:56.583Z,42.28
2018-04-27T10:56:24.082Z,42.60
2018-04-27T10:58:51.552Z,42.88
2018-04-27T11:01:19.064Z,39.93
2018-04-27T11:03:46.537Z,40.02
2018-04-27T11:06:14.016Z,40.51
2018-04-27T11:08:41.509Z,40.88
2018-04-27T11:11:09.006Z,41.46
2018-04-27T11:13:36.494Z,42.04
2018-04-27T11:16:03.947Z,41.83
2018-04-27T11:18:31.406Z,41.39
2018-04-27T11:20:58.897Z,41.71
2018-04-27T11:23:26.428Z,40.39
2018-04-27T11:25:54.036Z,40.87
2018-04-27T11:28:21.534Z,40.66
2018-04-27T11:30:48.983Z,40.14
2018-04-27T11:33:16.555Z,40.27
2018-04-27T11:35:44.143Z,39.31
2018-04-27T11:38:11.626Z,39.68
2018-04-27T11:40:39.115Z,39.51
2018-04-27T11:43:06.613Z,39.57
2018-04-27T11:45:34.063Z,39.39
2018-04-27T11:48:01.585Z,37.86
2018-04-27T11:50:29.073Z,37.82
2018-04-27T11:52:56.559Z,37.88
2018-04-27T11:55:24.079Z,37.63
2018-04-27T11:57:51.565Z,37.42
2018-04-27T12:00:21.599Z,37.00
2018-04-27T12:02:49.123Z,37.35
2018-04-27T12:05:16.604Z,37.53
2018-04-27T12:07:44.070Z,37.94
2018-04-27T12:10:11.556Z,37.19
2018-04-27T12:12:39.037Z,36.53
2018-04-27T12:15:06.498Z,36.40
2018-04-27T12:17:33.996Z,35.70
2018-04-27T12:20:01.420Z,35.50
2018-04-27T12:22:28.891Z,35.14
2018-04-27T12:24:56.331Z,34.98
2018-04-27T12:27:23.812Z,34.54
2018-04-27T12:29:51.284Z,35.22
2018-04-27T12:32:18.777Z,35.04
2018-04-27T12:34:46.297Z,34.61
2018-04-27T12:37:13.742Z,35.27
2018-04-27T12:39:41.188Z,36.43
2018-04-27T12:42:08.718Z,36.47
2018-04-27T12:44:36.243Z,35.43
2018-04-27T12:47:03.685Z,36.20
2018-04-27T12:49:31.196Z,36.02
2018-04-27T12:51:58.691Z,33.83
2018-04-27T12:54:26.177Z,33.40
2018-04-27T12:56:53.649Z,33.94
2018-04-27T12:59:21.140Z,33.58
2018-04-27T13:01:48.721Z,33.71
2018-04-27T13:04:16.252Z,32.85
2018-04-27T13:06:43.696Z,31.91
2018-04-27T13:09:11.199Z,32.03
2018-04-27T13:11:38.683Z,32.04
2018-04-27T13:14:06.131Z,31.43
2018-04-27T13:16:33.683Z,31.82
2018-04-27T13:19:01.173Z,32.32
2018-04-27T13:21:28.707Z,32.63
2018-04-27T13:23:56.215Z,32.67
2018-04-27T13:26:23.742Z,32.52
2018-04-27T13:28:51.159Z,32.64
2018-04-27T13:31:18.631Z,32.84
2018-04-27T13:33:46.080Z,33.52
2018-04-27T13:36:13.566Z,33.76
2018-04-27T13:38:41.078Z,33.70
2018-04-27T13:41:08.561Z,33.88
2018-04-27T13:43:36.011Z,34.30
2018-04-27T13:46:03.552Z,34.28
2018-04-27T13:48:31.006Z,34.55
2018-04-27T13:50:58.475Z,35.04
2018-04-27T13:53:25.997Z,35.92
2018-04-27T13:55:53.451Z,35.56
2018-04-27T13:58:20.929Z,35.62
2018-04-27T14:00:48.388Z,35.29
2018-04-27T14:03:15.852Z,35.54
2018-04-27T14:05:43.308Z,35.79
2018-04-27T14:08:10.749Z,35.25
2018-04-27T14:10:38.262Z,35.57
2018-04-27T14:13:05.833Z,35.31
2018-04-27T14:15:33.370Z,34.99
2018-04-27T14:18:00.861Z,35.06
2018-04-27T14:20:28.308Z,35.30
2018-04-27T14:22:55.841Z,35.84
2018-04-27T14:25:23.368Z,35.59
2018-04-27T14:27:50.841Z,35.70
2018-04-27T14:30:18.325Z,35.39
2018-04-27T14:32:45.802Z,35.75
2018-04-27T14:35:13.361Z,35.99
2018-04-27T14:37:40.914Z,35.90
2018-04-27T14:40:08.447Z,36.35
2018-04-27T14:42:35.925Z,36.29
2018-04-27T14:45:03.397Z,36.04
2018-04-27T14:47:30.851Z,35.75
2018-04-27T14:49:58.302Z,35.56
2018-04-27T14:52:25.805Z,35.39
2018-04-27T14:54:53.264Z,35.18
2018-04-27T14:57:20.731Z,34.98
2018-04-27T14:59:48.308Z,35.10
2018-04-27T15:02:15.789Z,35.22
2018-04-27T15:04:43.246Z,34.84
2018-04-27T15:07:10.716Z,34.91
2018-04-27T15:09:38.224Z,34.65
2018-04-27T15:12:05.807Z,34.65
2018-04-27T15:14:33.262Z,35.03
2018-04-27T15:17:00.723Z,35.35
2018-04-27T15:19:28.164Z,34.92
2018-04-27T15:21:55.652Z,34.31
2018-04-27T15:24:23.156Z,33.43
2018-04-27T15:26:50.665Z,32.81
2018-04-27T15:29:18.147Z,31.89
2018-04-27T15:31:45.630Z,31.41
2018-04-27T15:34:13.121Z,30.77
2018-04-27T15:36:40.587Z,30.39
2018-04-27T15:39:08.028Z,30.28
2018-04-27T15:41:35.563Z,29.54
2018-04-27T15:44:03.123Z,29.23
2018-04-27T15:46:30.590Z,30.54
2018-04-27T15:48:58.070Z,31.19
2018-04-27T15:51:25.559Z,31.94
2018-04-27T15:53:53.057Z,33.04
2018-04-27T15:56:20.537Z,33.08
2018-04-27T15:58:48.007Z,33.11
2018-04-27T16:01:15.496Z,32.46
2018-04-27T16:03:43.803Z,31.55
2018-04-27T16:06:11.264Z,31.25
2018-04-27T16:08:38.732Z,30.68
2018-04-27T16:11:06.260Z,31.12
2018-04-27T16:13:51.514Z,31.70
2018-04-27T16:16:19.631Z,32.66
2018-04-27T16:18:47.115Z,32.80
2018-04-27T16:21:14.578Z,33.26
2018-04-27T16:23:42.964Z,33.78
2018-04-27T16:26:10.465Z,34.95
2018-04-27T16:28:37.952Z,35.73
2018-04-27T16:31:05.420Z,35.84
2018-04-27T16:33:32.867Z,35.90
2018-04-27T16:36:00.446Z,36.26
2018-04-27T16:38:27.935Z,36.33
2018-04-27T16:40:55.487Z,35.85
2018-04-27T16:43:22.953Z,35.89
2018-04-27T16:45:50.401Z,36.10
2018-04-27T16:48:17.847Z,36.20
2018-04-27T16:50:45.344Z,36.86
2018-04-27T16:53:12.830Z,37.38
2018-04-27T16:55:40.363Z,37.34
2018-04-27T16:58:07.852Z,37.46
2018-04-27T17:00:35.311Z,37.40
2018-04-27T17:03:02.800Z,37.92
2018-04-27T17:05:30.458Z,37.88
2018-04-27T17:07:57.934Z,37.92
2018-04-27T17:10:25.441Z,38.46
2018-04-27T17:12:52.903Z,37.65
2018-04-27T17:15:20.390Z,38.13
2018-04-27T17:17:48.046Z,38.51
2018-04-27T17:20:15.535Z,37.99
2018-04-27T17:22:43.038Z,37.94
2018-04-27T17:25:10.579Z,38.11
2018-04-27T17:27:38.053Z,37.89
2018-04-27T17:30:05.574Z,37.69
2018-04-27T17:32:33.089Z,38.04
2018-04-27T17:35:00.579Z,38.41
2018-04-27T17:37:28.096Z,38.38
2018-04-27T17:39:55.605Z,38.76
2018-04-27T17:42:23.091Z,39.03
2018-04-27T17:44:50.547Z,39.57
2018-04-27T17:47:18.029Z,40.02
2018-04-27T17:49:45.507Z,39.53
2018-04-27T17:52:12.985Z,39.37
2018-04-27T17:54:40.512Z,39.66
2018-04-27T17:57:07.963Z,40.69
2018-04-27T17:59:35.444Z,40.49
2018-04-27T18:02:02.937Z,40.99
2018-04-27T18:04:30.382Z,41.55
2018-04-27T18:06:57.896Z,41.36
2018-04-27T18:09:25.406Z,41.98
2018-04-27T18:11:52.939Z,41.86
2018-04-27T18:14:20.416Z,42.57
2018-04-27T18:16:47.988Z,42.31
2018-04-27T18:19:15.450Z,42.22
2018-04-27T18:21:42.892Z,42.59
2018-04-27T18:24:10.485Z,43.58
2018-04-27T18:26:38.032Z,43.25
2018-04-27T18:29:05.504Z,43.39
2018-04-27T18:31:32.993Z,43.05
2018-04-27T18:34:00.453Z,43.57
2018-04-27T18:36:27.959Z,43.84
2018-04-27T18:38:55.437Z,44.24
2018-04-27T18:41:22.887Z,44.85
2018-04-27T18:43:50.359Z,45.36
2018-04-27T18:46:18.203Z,45.71
2018-04-27T18:48:45.694Z,45.97
2018-04-27T18:51:13.882Z,46.39
2018-04-27T18:53:41.448Z,46.38
2018-04-27T18:56:08.892Z,46.49
2018-04-27T18:58:36.391Z,47.02
2018-04-27T19:01:03.872Z,47.49
2018-04-27T19:03:31.341Z,47.51
2018-04-27T19:05:58.819Z,47.83
2018-04-27T19:08:26.268Z,48.06
2018-04-27T19:10:53.776Z,48.18
2018-04-27T19:13:21.254Z,48.69
2018-04-27T19:15:48.704Z,49.10
2018-04-27T19:18:18.847Z,48.91
2018-04-27T19:20:46.666Z,49.20
2018-04-27T19:23:16.772Z,49.45
2018-04-27T19:25:47.748Z,49.71
2018-04-27T19:28:15.272Z,49.74
2018-04-27T19:30:42.783Z,49.94
2018-04-27T19:33:10.978Z,50.28
2018-04-27T19:35:38.464Z,50.20
2018-04-27T19:38:06.016Z,51.15
2018-04-27T19:40:34.250Z,50.94
2018-04-27T19:43:01.853Z,51.03
2018-04-27T19:45:29.400Z,51.61
2018-04-27T19:47:56.888Z,51.25
2018-04-27T19:50:24.406Z,51.56
2018-04-27T19:52:51.941Z,51.83
2018-04-27T19:55:19.432Z,52.53
2018-04-27T19:57:46.941Z,53.64
2018-04-27T20:00:14.441Z,53.12
2018-04-27T20:02:41.974Z,53.24
2018-04-27T20:05:12.857Z,53.54
2018-04-27T20:07:40.362Z,53.92
2018-04-27T20:10:12.608Z,54.41
2018-04-27T20:12:40.098Z,54.87
2018-04-27T20:15:07.551Z,55.00
2018-04-27T20:17:37.861Z,55.24
2018-04-27T20:20:06.937Z,55.52
2018-04-27T20:22:35.235Z,56.13
2018-04-27T20:25:04.558Z,56.36
2018-04-27T20:27:35.495Z,56.71
2018-04-27T20:30:12.813Z,56.91
2018-04-27T20:32:40.262Z,57.32
2018-04-27T20:35:15.335Z,57.35
2018-04-27T20:37:42.855Z,58.64
2018-04-27T20:40:15.820Z,57.68
2018-04-27T20:42:43.279Z,58.52
2018-04-27T20:45:10.839Z,59.21
2018-04-27T20:47:38.356Z,59.36
2018-04-27T20:50:05.944Z,59.37
2018-04-27T20:52:38.988Z,59.72
2018-04-27T20:55:07.974Z,59.63
2018-04-27T20:57:35.501Z,60.03
2018-04-27T21:00:03.060Z,60.25
2018-04-27T21:02:30.479Z,60.75
2018-04-27T21:04:58.016Z,61.10
2018-04-27T21:07:25.477Z,60.49
2018-04-27T21:09:52.977Z,60.52
2018-04-27T21:12:20.590Z,60.57
2018-04-27T21:14:48.099Z,61.08
2018-04-27T21:17:15.564Z,60.88
2018-04-27T21:19:43.033Z,61.32
2018-04-27T21:22:11.430Z,61.37
2018-04-27T21:24:38.928Z,61.69
2018-04-27T21:27:06.504Z,61.85
2018-04-27T21:29:36.553Z,61.85
2018-04-27T21:32:04.013Z,62.00
2018-04-27T21:34:31.522Z,62.52
2018-04-27T21:36:58.999Z,62.66
2018-04-27T21:39:36.296Z,62.57
2018-04-27T21:42:05.549Z,62.71
2018-04-27T21:44:47.941Z,62.76
2018-04-27T21:47:34.960Z,62.64
2018-04-27T21:50:03.188Z,62.51
2018-04-27T21:52:32.636Z,62.39
2018-04-27T21:55:00.141Z,63.12
2018-04-27T21:57:29.250Z,62.91
2018-04-27T22:00:05.345Z,63.18
2018-04-27T22:02:34.297Z,63.41
2018-04-27T22:08:21.223Z,63.33
2018-04-27T22:10:49.527Z,62.99
2018-04-27T22:13:19.520Z,63.74
2018-04-27T22:15:47.108Z,63.77
2018-04-27T22:18:14.668Z,63.96
2018-04-27T22:20:48.013Z,63.69
2018-04-27T22:23:15.505Z,63.80
2018-04-27T22:25:46.610Z,64.03
2018-04-27T22:28:15.024Z,64.47
2018-04-27T22:30:57.448Z,64.42
2018-04-27T22:33:24.983Z,64.64
2018-04-27T22:35:55.091Z,64.88
2018-04-27T22:41:34.503Z,65.48
2018-04-27T22:44:01.998Z,65.37
2018-04-27T22:46:29.575Z,65.29
2018-04-27T22:48:59.645Z,65.32
2018-04-27T22:51:42.952Z,65.38
2018-04-27T22:57:18.071Z,65.45
2018-04-27T22:59:45.511Z,65.46
2018-04-27T23:02:14.945Z,65.77
2018-04-27T23:04:42.532Z,65.94
2018-04-27T23:10:11.959Z,65.48
2018-04-27T23:12:42.837Z,65.44
2018-04-27T23:15:10.292Z,65.43
2018-04-27T23:17:37.906Z,65.69
2018-04-27T23:20:25.904Z,66.10
2018-04-27T23:22:56.908Z,66.24
2018-04-27T23:25:24.365Z,66.27
2018-04-27T23:27:51.817Z,66.33
2018-04-27T23:30:19.300Z,66.35
2018-04-27T23:32:46.752Z,66.49
2018-04-27T23:35:14.196Z,66.66
2018-04-27T23:37:41.699Z,66.73
2018-04-27T23:40:09.313Z,66.90
2018-04-27T23:42:36.774Z,67.12
2018-04-27T23:45:04.235Z,66.98
2018-04-27T23:47:31.781Z,67.03
2018-04-27T23:49:59.256Z,67.00
2018-04-27T23:52:26.737Z,67.57
2018-04-27T23:54:54.254Z,67.38
2018-04-27T23:57:23.135Z,67.68
2018-04-27T23:59:53.085Z,67.93
